createdAt,value
2017-05-13T00:01:04.496Z,83.90
2017-05-13T00:03:32.790Z,83.60
2017-05-13T00:06:01.123Z,82.90
2017-05-13T00:08:29.414Z,82.10
2017-05-13T00:10:57.715Z,82.20
2017-05-13T00:13:26.054Z,81.90
2017-05-13T00:15:55.095Z,82.70
2017-05-13T00:18:23.389Z,83.80
2017-05-13T00:20:51.719Z,82.90
2017-05-13T00:23:20.029Z,83.20
2017-05-13T00:25:48.331Z,82.30
2017-05-13T00:28:16.666Z,82.40
2017-05-13T00:30:44.972Z,82.40
2017-05-13T00:33:13.265Z,82.30
2017-05-13T00:35:41.598Z,82.30
2017-05-13T00:38:09.893Z,82.50
2017-05-13T00:40:38.183Z,82.50
2017-05-13T00:43:06.500Z,81.90
2017-05-13T00:45:35.534Z,81.60
2017-05-13T00:48:03.825Z,81.40
2017-05-13T00:50:32.151Z,81.20
2017-05-13T00:53:00.443Z,80.40
2017-05-13T00:55:29.480Z,80.10
2017-05-13T00:57:57.805Z,79.80
2017-05-13T01:00:26.843Z,79.20
2017-05-13T01:02:55.150Z,79.80
2017-05-13T01:05:23.478Z,79.80
2017-05-13T01:07:51.778Z,80.00
2017-05-13T01:10:20.062Z,80.20
2017-05-13T01:12:48.406Z,80.40
2017-05-13T01:15:16.698Z,80.70
2017-05-13T01:17:44.996Z,80.40
2017-05-13T01:20:13.356Z,80.60
2017-05-13T01:22:41.652Z,80.20
2017-05-13T01:25:09.951Z,80.80
2017-05-13T01:27:38.286Z,80.20
2017-05-13T01:30:06.588Z,80.40
2017-05-13T01:32:34.892Z,80.40
2017-05-13T01:35:03.222Z,81.10
2017-05-13T01:37:31.516Z,82.40
2017-05-13T01:39:59.819Z,82.40
2017-05-13T01:42:28.151Z,82.90
2017-05-13T01:44:57.196Z,84.10
2017-05-13T01:47:25.498Z,83.60
2017-05-13T01:49:53.830Z,84.40
2017-05-13T01:52:22.133Z,85.20
2017-05-13T01:54:50.417Z,85.60
2017-05-13T01:57:18.758Z,86.30
2017-05-13T01:59:47.050Z,85.30
2017-05-13T02:02:15.351Z,86.10
2017-05-13T02:04:43.680Z,87.00
2017-05-13T02:07:11.983Z,87.50
2017-05-13T02:09:40.269Z,87.90
2017-05-13T02:12:08.599Z,87.70
2017-05-13T02:14:37.635Z,88.40
2017-05-13T02:17:05.921Z,88.90
2017-05-13T02:19:34.245Z,89.60
2017-05-13T02:22:03.285Z,89.90
2017-05-13T02:24:31.582Z,89.30
2017-05-13T02:26:59.932Z,88.30
2017-05-13T02:29:28.227Z,87.90
2017-05-13T02:31:56.510Z,87.50
2017-05-13T02:34:24.827Z,87.20
2017-05-13T02:36:53.866Z,87.20
2017-05-13T02:39:22.158Z,87.20
2017-05-13T02:41:50.486Z,88.10
2017-05-13T02:44:19.528Z,88.50
2017-05-13T02:46:47.822Z,89.30
2017-05-13T02:49:16.149Z,89.60
2017-05-13T02:51:45.179Z,90.40
2017-05-13T02:54:13.482Z,90.80
2017-05-13T02:56:41.819Z,91.10
2017-05-13T02:59:10.123Z,91.00
2017-05-13T03:01:38.414Z,91.30
2017-05-13T03:04:06.729Z,92.20
2017-05-13T03:06:35.772Z,92.60
2017-05-13T03:09:04.069Z,92.70
2017-05-13T03:11:32.386Z,93.00
2017-05-13T03:14:01.443Z,93.00
2017-05-13T03:16:29.726Z,93.00
2017-05-13T03:18:58.055Z,93.10
2017-05-13T03:21:26.344Z,93.40
2017-05-13T03:23:54.629Z,93.60
2017-05-13T03:26:22.950Z,93.60
2017-05-13T03:28:51.262Z,93.50
2017-05-13T03:31:19.553Z,93.60
2017-05-13T03:33:47.882Z,93.80
2017-05-13T03:36:16.166Z,94.20
2017-05-13T03:38:44.482Z,94.00
2017-05-13T03:41:12.795Z,94.10
2017-05-13T03:43:41.099Z,94.30
2017-05-13T03:46:09.391Z,94.20
2017-05-13T03:48:38.482Z,94.50
2017-05-13T03:51:06.770Z,94.30
2017-05-13T03:53:35.807Z,94.10
2017-05-13T03:56:04.132Z,93.90
2017-05-13T03:58:32.442Z,93.20
2017-05-13T04:01:00.733Z,92.90
2017-05-13T04:03:29.062Z,92.80
2017-05-13T04:05:57.366Z,92.40
2017-05-13T04:08:26.399Z,92.40
2017-05-13T04:10:54.731Z,91.60
2017-05-13T04:13:23.762Z,90.90
2017-05-13T04:15:52.067Z,90.30
2017-05-13T04:18:20.399Z,89.90
2017-05-13T04:20:48.703Z,89.10
2017-05-13T04:23:17.000Z,88.70
2017-05-13T04:25:45.325Z,88.70
2017-05-13T04:28:14.363Z,87.60
2017-05-13T04:30:42.671Z,87.70
2017-05-13T04:33:11.021Z,86.20
2017-05-13T04:35:39.321Z,85.40
2017-05-13T04:38:11.275Z,82.90
2017-05-13T04:40:39.566Z,80.60
2017-05-13T04:43:07.868Z,79.10
2017-05-13T04:45:36.181Z,77.40
2017-05-13T04:48:04.514Z,76.30
2017-05-13T04:50:32.935Z,72.20
2017-05-13T04:53:01.229Z,56.40
2017-05-13T04:55:29.540Z,44.60
2017-05-13T04:57:57.827Z,37.50
2017-05-13T21:06:48.162Z,89.70
2017-05-13T21:09:16.457Z,89.60
2017-05-13T21:11:45.489Z,90.00
2017-05-13T21:14:13.914Z,90.30
2017-05-13T21:16:42.417Z,90.40
2017-05-13T21:19:10.830Z,89.80
2017-05-13T21:21:39.247Z,90.00
2017-05-13T21:24:08.428Z,90.70
2017-05-13T21:26:36.729Z,91.10
2017-05-13T21:29:05.014Z,91.40
2017-05-13T21:31:33.346Z,91.30
2017-05-13T21:34:01.635Z,91.20
2017-05-13T21:36:29.917Z,91.10
2017-05-13T21:38:58.242Z,91.40
2017-05-13T21:41:27.282Z,91.20
2017-05-13T21:43:55.571Z,91.40
2017-05-13T21:46:23.885Z,91.50
2017-05-13T21:48:52.181Z,91.40
2017-05-13T21:51:21.207Z,91.30
2017-05-13T21:53:49.533Z,91.10
2017-05-13T21:56:17.822Z,91.00
2017-05-13T21:58:46.857Z,91.00
2017-05-13T22:01:15.186Z,90.70
2017-05-13T22:03:43.478Z,90.70
2017-05-13T22:06:12.525Z,90.60
2017-05-13T22:08:40.882Z,90.00
2017-05-13T22:11:09.166Z,89.70
2017-05-13T22:13:37.446Z,90.00
2017-05-13T22:16:06.727Z,90.20
2017-05-13T22:18:35.013Z,90.20
2017-05-13T22:21:03.342Z,90.60
2017-05-13T22:23:31.663Z,90.50
2017-05-13T22:25:59.958Z,90.60
2017-05-13T22:28:28.256Z,90.60
2017-05-13T22:30:56.605Z,90.10
2017-05-13T22:33:24.886Z,90.30
2017-05-13T22:35:53.169Z,90.40
2017-05-13T22:38:21.481Z,90.70
2017-05-13T22:40:49.771Z,91.10
2017-05-13T22:43:18.054Z,91.60
2017-05-13T22:45:46.381Z,91.70
2017-05-13T22:48:14.662Z,92.10
2017-05-13T22:50:42.943Z,92.10
2017-05-13T22:53:11.249Z,92.20
2017-05-13T22:55:39.554Z,92.30
2017-05-13T22:58:07.938Z,92.20
2017-05-13T23:00:37.015Z,92.00
2017-05-13T23:03:05.296Z,92.20
2017-05-13T23:05:33.574Z,92.60
2017-05-13T23:08:01.901Z,92.60
2017-05-13T23:10:30.182Z,92.60
2017-05-13T23:12:58.482Z,92.70
2017-05-13T23:15:26.822Z,92.60
2017-05-13T23:17:55.117Z,92.40
2017-05-13T23:20:23.397Z,92.40
2017-05-13T23:22:51.706Z,92.40
2017-05-13T23:25:20.021Z,92.30
2017-05-13T23:27:48.311Z,92.10
2017-05-13T23:30:17.368Z,92.00
2017-05-13T23:32:45.647Z,91.90
2017-05-13T23:35:13.942Z,91.70
2017-05-13T23:37:42.274Z,91.30
2017-05-13T23:40:10.561Z,91.30
2017-05-13T23:42:39.048Z,91.30
2017-05-13T23:45:07.420Z,91.30
2017-05-13T23:47:35.718Z,91.20
2017-05-13T23:50:04.004Z,91.10
2017-05-13T23:52:32.357Z,91.20
2017-05-13T23:55:00.652Z,91.40
2017-05-13T23:57:28.933Z,91.60
2017-05-13T23:59:57.255Z,92.00
